Tyrone, Colorado
Current Conditions -  °F | °C
As of 10:54 AM on Monday 24 Nov 2014 (Local Time) from KTAD Reporting Station
Overcast Overcast  
Wind Chill: -4°   Ceiling: 10000
Heat Index:   Visibility: 10mi
Dew Point: -8°   Wind: 12mph
Humidity: 52%   Direction: 270°W
Pressure: 29.98"   Gusts: NA
Location:  37.5307°N, 104.063°W
Report Text: KTAD 241754Z AUTO 27010KT 10SM OVC100 01/M08 A2998 RMK AO2 SLP171 T00061083 10006 21100 50003
Loading
Personal Weather Stations






























Interactive Weather Map New forecast layout! Learn more

10-Day Weather Forecast

Advertisements
Track Severe Weather on mobile